Time;durP1;ratioP1;P1;durP2;ratioP2;P2;SDS_P1;SDS_P2;PMS_P1;PMS_P2;Temp;Humidity;BMP_temperature;BMP_pressure;BME280_temperature;BME280_humidity;BME280_pressure;Samples;Min_cycle;Max_cycle;Signal;HPM_P1;HPM_P2
2021/04/15 00:01:12;;;;;;;30.19;21.16;;;;;;;9.87;60.73;98918.65;346091;114;1961902;-73
2021/04/15 00:02:18;;;;;;;30.59;20.15;;;;;;;9.86;60.78;98918.85;348637;115;1962940;-73
2021/04/15 00:03:29;;;;;;;27.69;20.11;;;;;;;9.83;60.82;98919.30;348428;115;1962986;-71
2021/04/15 00:04:36;;;;;;;30.43;21.36;;;;;;;9.80;61.06;98920.56;318655;114;2577960;-72
2021/04/15 00:05:42;;;;;;;27.36;21.18;;;;;;;9.76;61.02;98916.64;329838;113;1961976;-72
2021/04/15 00:06:48;;;;;;;29.94;20.27;;;;;;;9.74;60.98;98918.75;352874;114;1961975;-72
2021/04/15 00:07:55;;;;;;;34.54;22.44;;;;;;;9.71;61.14;98918.34;354866;112;1960963;-72
2021/04/15 00:09:04;;;;;;;31.11;21.01;;;;;;;9.68;61.33;98920.45;315022;114;2005117;-72
2021/04/15 00:10:12;;;;;;;29.71;21.52;;;;;;;9.64;61.38;98919.22;347222;112;1961925;-73
2021/04/15 00:11:21;;;;;;;32.62;23.08;;;;;;;9.60;61.54;98915.30;350681;114;1962094;-73
2021/04/15 00:12:26;;;;;;;36.46;25.64;;;;;;;9.57;61.64;98915.73;354791;114;1962021;-72
2021/04/15 00:13:44;;;;;;;34.71;25.16;;;;;;;9.55;61.86;98917.00;352351;114;1964961;-72
2021/04/15 00:14:50;;;;;;;35.54;23.33;;;;;;;9.52;61.89;98918.26;308227;111;2076217;-72
2021/04/15 00:15:55;;;;;;;38.70;24.98;;;;;;;9.48;62.16;98911.66;325403;114;1962000;-71
2021/04/15 00:17:01;;;;;;;33.96;23.72;;;;;;;9.45;62.40;98906.71;351504;115;1962005;-72
2021/04/15 00:18:06;;;;;;;36.65;26.56;;;;;;;9.41;62.53;98918.95;357047;111;1965036;-73
2021/04/15 00:19:15;;;;;;;36.64;24.21;;;;;;;9.37;62.47;98915.88;364667;111;1961921;-73
2021/04/15 00:20:22;;;;;;;29.67;21.30;;;;;;;9.35;62.51;98915.27;362220;111;1961951;-72
2021/04/15 00:21:28;;;;;;;29.91;22.22;;;;;;;9.34;62.53;98912.77;362816;111;1962049;-72
2021/04/15 00:22:33;;;;;;;35.97;22.52;;;;;;;9.33;62.64;98911.13;332287;111;2501978;-72
2021/04/15 00:23:39;;;;;;;31.36;22.25;;;;;;;9.34;62.67;98915.47;338680;111;1963021;-73
2021/04/15 00:24:44;;;;;;;29.64;21.38;;;;;;;9.34;62.67;98915.47;362742;109;1963799;-72
2021/04/15 00:25:50;;;;;;;33.82;23.86;;;;;;;9.33;62.53;98919.22;363833;111;1961970;-71
2021/04/15 00:26:55;;;;;;;34.01;25.39;;;;;;;9.32;62.64;98906.80;363467;111;1961923;-73
2021/04/15 00:28:00;;;;;;;35.37;26.11;;;;;;;9.31;62.69;98914.03;364603;111;1961943;-73
2021/04/15 00:29:06;;;;;;;34.18;24.20;;;;;;;9.30;62.72;98911.56;361404;106;1962243;-72
2021/04/15 00:30:13;;;;;;;38.33;26.94;;;;;;;9.28;62.75;98906.38;304794;114;2091583;-73
2021/04/15 00:31:19;;;;;;;31.42;23.07;;;;;;;9.28;62.87;98902.86;355866;112;1960952;-72
2021/04/15 00:32:25;;;;;;;35.92;23.34;;;;;;;9.28;62.92;98905.56;354102;112;1962019;-73
2021/04/15 00:33:31;;;;;;;34.08;24.64;;;;;;;9.27;62.90;98904.73;354220;114;1961991;-73
2021/04/15 00:34:37;;;;;;;36.54;24.68;;;;;;;9.28;63.00;98905.56;343395;112;1961929;-73
2021/04/15 00:35:43;;;;;;;37.88;26.29;;;;;;;9.28;63.07;98909.08;353104;112;1963918;-72
2021/04/15 00:36:49;;;;;;;38.06;25.86;;;;;;;9.29;63.09;98907.20;355692;114;1962961;-72
2021/04/15 00:37:54;;;;;;;38.66;25.06;;;;;;;9.29;63.14;98908.05;354505;112;1962939;-72
2021/04/15 00:38:59;;;;;;;36.13;25.13;;;;;;;9.30;63.15;98908.88;356165;112;1961987;-72
2021/04/15 00:40:07;;;;;;;38.87;25.88;;;;;;;9.31;63.14;98908.64;360907;112;1961993;-72
2021/04/15 00:41:12;;;;;;;35.14;24.02;;;;;;;9.33;63.10;98903.05;354243;112;1962049;-73
2021/04/15 00:42:17;;;;;;;31.91;24.03;;;;;;;9.34;63.14;98899.30;356663;112;1962946;-72
2021/04/15 00:43:26;;;;;;;30.92;22.08;;;;;;;9.36;63.04;98908.00;358697;112;1962114;-72
2021/04/15 00:44:32;;;;;;;33.68;22.56;;;;;;;9.38;62.95;98901.34;351969;114;1961945;-71
2021/04/15 00:45:41;;;;;;;32.18;20.99;;;;;;;9.41;62.94;98908.17;358681;111;1960655;-73
2021/04/15 00:46:51;;;;;;;34.56;24.16;;;;;;;9.44;62.98;98902.34;361746;110;1961926;-72
2021/04/15 00:48:03;;;;;;;40.57;27.56;;;;;;;9.45;62.98;98904.84;360324;110;1962079;-73
2021/04/15 00:49:10;;;;;;;;;;;;;;;9.48;62.90;98900.06;359905;111;1961014;-73
2021/04/15 00:50:23;;;;;;;32.06;21.78;;;;;;;9.50;62.90;98895.25;361123;111;1961020;-72
2021/04/15 00:51:33;;;;;;;29.99;20.03;;;;;;;9.52;62.58;98893.99;339685;111;2288915;-72
2021/04/15 00:52:43;;;;;;;30.64;20.29;;;;;;;9.55;62.46;98895.42;307885;111;2872921;-72
2021/04/15 00:53:55;;;;;;;27.34;20.28;;;;;;;9.58;62.30;98892.29;360266;111;1963078;-72
2021/04/15 00:55:04;;;;;;;32.85;21.60;;;;;;;9.59;62.34;98892.08;359131;111;1963031;-72
2021/04/15 00:56:12;;;;;;;32.67;22.21;;;;;;;9.60;62.31;98893.72;357974;111;1961942;-73
2021/04/15 00:57:22;;;;;;;28.73;21.62;;;;;;;9.61;62.33;98891.88;309883;112;2786851;-72
2021/04/15 00:58:28;;;;;;;33.81;21.99;;;;;;;9.62;62.34;98896.22;353863;111;1964012;-72
2021/04/15 00:59:33;;;;;;;32.16;22.74;;;;;;;9.61;62.38;98898.09;326140;111;1963010;-72
2021/04/15 01:00:40;;;;;;;30.13;21.89;;;;;;;9.63;62.30;98892.46;357095;111;1962005;-73
2021/04/15 01:01:45;;;;;;;32.91;21.73;;;;;;;9.64;62.28;98894.13;357890;111;1964993;-72
2021/04/15 01:02:53;;;;;;;32.06;22.32;;;;;;;9.65;62.22;98891.20;354466;113;1963104;-72
2021/04/15 01:03:59;;;;;;;34.59;21.01;;;;;;;9.65;62.20;98888.50;359129;111;1962028;-72
2021/04/15 01:05:08;;;;;;;36.21;23.66;;;;;;;9.67;62.25;98891.81;356507;113;1960980;-73
2021/04/15 01:06:16;;;;;;;32.08;21.99;;;;;;;9.66;62.21;98895.56;359953;111;1962022;-73
2021/04/15 01:07:30;;;;;;;33.97;22.40;;;;;;;9.68;62.19;98893.48;321570;111;2628777;-73
2021/04/15 01:08:36;;;;;;;30.38;20.08;;;;;;;9.70;62.07;98895.95;354120;113;1961915;-72
2021/04/15 01:09:42;;;;;;;30.96;21.34;;;;;;;9.73;61.98;98889.29;316193;115;2561992;-72
2021/04/15 01:10:51;;;;;;;31.26;22.15;;;;;;;9.73;61.92;98884.72;347445;117;1964960;-73
2021/04/15 01:12:06;;;;;;;31.67;21.63;;;;;;;9.75;61.90;98889.91;308138;115;2046348;-72
2021/04/15 01:13:32;;;;;;;31.19;20.61;;;;;;;9.75;61.88;98890.72;316868;115;1962064;-72
2021/04/15 01:14:57;;;;;;;30.67;21.47;;;;;;;9.78;61.72;98890.28;340091;117;1961964;-72
2021/04/15 01:16:09;;;;;;;33.06;22.64;;;;;;;9.79;61.70;98891.95;349950;115;1961997;-73
2021/04/15 01:17:54;;;;;;;43.63;26.71;;;;;;;9.79;61.63;98888.40;299349;115;2834013;-72
2021/04/15 01:19:04;;;;;;;35.47;25.84;;;;;;;9.79;61.54;98894.64;314990;117;2537937;-72
2021/04/15 01:20:26;;;;;;;39.14;27.19;;;;;;;9.78;61.50;98884.06;310315;115;2612924;-73
2021/04/15 01:21:51;;;;;;;36.11;26.13;;;;;;;9.76;61.60;98888.84;339641;117;1965323;-72
2021/04/15 01:23:31;;;;;;;38.35;24.03;;;;;;;9.73;61.70;98892.80;351655;109;1959723;-72
2021/04/15 01:24:47;;;;;;;30.57;21.76;;;;;;;9.72;61.65;98891.16;346927;115;1962962;-72
2021/04/15 01:26:08;;;;;;;30.74;22.37;;;;;;;9.72;61.53;98887.65;340426;115;1960905;-73
2021/04/15 01:27:23;;;;;;;33.56;22.14;;;;;;;9.69;61.67;98889.73;314768;115;2555901;-73
2021/04/15 01:28:48;;;;;;;29.95;21.28;;;;;;;9.68;61.62;98892.64;312463;115;2534001;-72
2021/04/15 01:30:12;;;;;;;27.62;19.59;;;;;;;9.66;61.71;98892.05;323380;110;2509700;-73
2021/04/15 01:31:22;;;;;;;30.61;20.56;;;;;;;9.65;61.68;98888.50;330858;110;2483947;-72
2021/04/15 01:32:32;;;;;;;30.01;20.18;;;;;;;9.64;61.68;98891.44;361610;110;1962016;-73
2021/04/15 01:33:45;;;;;;;28.89;20.32;;;;;;;9.49;61.58;98862.08;329876;109;2891967;-72
2021/04/15 01:35:00;;;;;;;31.90;19.81;;;;;;;9.64;61.65;98886.86;359479;110;1962902;-72
2021/04/15 01:36:19;;;;;;;28.38;21.02;;;;;;;9.65;61.63;98885.80;357163;114;1962931;-72
2021/04/15 01:37:46;;;;;;;30.01;21.49;;;;;;;9.64;61.62;98878.77;357737;110;1962052;-72
2021/04/15 01:38:58;;;;;;;26.84;19.82;;;;;;;9.63;61.66;98884.38;328883;110;2923762;-72
2021/04/15 01:40:14;;;;;;;27.67;20.36;;;;;;;9.62;61.59;98880.86;351962;113;1962949;-73
2021/04/15 01:41:36;;;;;;;29.44;20.89;;;;;;;9.63;61.67;98876.28;357896;110;1961909;-73
2021/04/15 01:42:45;;;;;;;27.75;20.28;;;;;;;9.60;61.71;98877.55;315965;110;2063992;-72
2021/04/15 01:43:58;;;;;;;31.31;21.53;;;;;;;9.58;61.79;98876.11;313235;110;2808961;-73
2021/04/15 01:45:07;;;;;;;30.71;20.11;;;;;;;9.58;61.80;98878.81;360004;110;1961999;-72
2021/04/15 01:46:18;;;;;;;29.76;20.55;;;;;;;9.56;61.81;98887.13;361441;110;1961995;-72
2021/04/15 01:47:33;;;;;;;28.66;19.88;;;;;;;9.57;61.85;98882.56;357817;110;1961961;-72
2021/04/15 01:48:42;;;;;;;29.41;21.41;;;;;;;9.56;61.90;98881.74;361033;110;1961965;-71
2021/04/15 01:49:52;;;;;;;29.35;21.02;;;;;;;9.53;61.93;98879.48;360478;110;1961980;-72
2021/04/15 01:51:01;;;;;;;31.24;21.98;;;;;;;9.53;61.88;98876.80;358173;112;1961953;-72
2021/04/15 01:52:10;;;;;;;34.94;24.01;;;;;;;9.52;61.90;98868.91;360134;110;1961969;-73
2021/04/15 01:53:22;;;;;;;30.93;21.51;;;;;;;9.52;61.94;98868.91;336838;112;1962892;-72
2021/04/15 01:54:39;;;;;;;30.92;21.07;;;;;;;9.49;62.04;98878.26;355216;114;1960760;-71
2021/04/15 01:56:03;;;;;;;30.57;20.01;;;;;;;9.47;62.07;98869.55;335197;110;2341857;-72
2021/04/15 01:57:13;;;;;;;28.38;20.27;;;;;;;9.45;62.09;98871.67;311690;114;2774005;-73
2021/04/15 01:58:25;;;;;;;29.64;20.18;;;;;;;9.43;62.20;98869.17;335637;110;2446977;-71
2021/04/15 01:59:43;;;;;;;30.37;21.01;;;;;;;9.40;62.32;98866.11;358895;112;1962015;-72
2021/04/15 02:00:52;;;;;;;29.44;20.58;;;;;;;9.38;62.27;98869.00;327112;110;2240008;-71
2021/04/15 02:02:05;;;;;;;29.70;21.71;;;;;;;9.36;62.42;98871.08;359024;110;1961973;-73
2021/04/15 02:03:23;;;;;;;33.41;22.05;;;;;;;9.35;62.44;98864.05;364808;110;1961993;-73
2021/04/15 02:04:32;;;;;;;35.43;22.23;;;;;;;9.33;62.55;98871.52;339901;109;1961988;-73
2021/04/15 02:05:41;;;;;;;30.09;22.44;;;;;;;9.31;62.69;98864.70;315368;117;2527043;-72
2021/04/15 02:07:04;;;;;;;29.12;21.37;;;;;;;9.29;62.69;98866.77;343761;115;1961980;-72
2021/04/15 02:08:13;;;;;;;28.86;20.35;;;;;;;9.28;62.80;98865.95;351697;113;1963044;-71
2021/04/15 02:09:21;;;;;;;28.49;20.67;;;;;;;9.28;62.69;98870.53;350852;113;1962031;-73
2021/04/15 02:10:28;;;;;;;26.87;20.13;;;;;;;9.28;62.72;98865.95;304491;117;2771002;-72
2021/04/15 02:11:49;;;;;;;28.85;19.53;;;;;;;9.28;62.73;98867.83;346162;115;1961977;-73
2021/04/15 02:12:59;;;;;;;27.09;20.11;;;;;;;9.28;62.76;98863.27;353653;115;1961891;-73
2021/04/15 02:14:07;;;;;;;30.74;21.33;;;;;;;9.25;62.84;98855.61;356631;113;1962935;-73
2021/04/15 02:15:19;;;;;;;28.37;19.90;;;;;;;9.24;62.93;98857.48;358035;110;1961987;-74
2021/04/15 02:16:30;;;;;;;30.13;20.38;;;;;;;9.25;62.91;98858.31;337654;111;2378983;-75
2021/04/15 02:17:39;;;;;;;29.27;19.58;;;;;;;9.27;62.88;98856.23;316198;112;2771990;-75
2021/04/15 02:18:49;;;;;;;29.17;20.46;;;;;;;9.27;62.92;98860.80;319225;111;2715022;-73
2021/04/15 02:19:59;;;;;;;29.16;19.71;;;;;;;9.27;62.93;98860.80;317104;110;2757002;-74
2021/04/15 02:21:27;;;;;;;33.67;22.38;;;;;;;9.27;62.97;98853.53;334747;110;2933875;-74
2021/04/15 02:23:00;;;;;;;29.96;20.46;;;;;;;9.26;62.95;98857.25;360694;110;1962008;-75
2021/04/15 02:24:10;;;;;;;32.71;21.56;;;;;;;9.23;63.02;98855.85;340038;110;1961025;-74
2021/04/15 02:25:28;;;;;;;32.34;21.95;;;;;;;9.21;63.07;98855.23;361171;112;1962037;-75
2021/04/15 02:26:41;;;;;;;34.09;22.34;;;;;;;9.20;63.21;98853.56;358629;112;1961851;-74
2021/04/15 02:27:59;;;;;;;31.89;22.16;;;;;;;9.18;63.25;98852.13;356909;112;1961929;-75
2021/04/15 02:29:19;;;;;;;31.89;20.25;;;;;;;9.16;63.36;98848.84;360635;112;1961977;-76
2021/04/15 02:30:31;;;;;;;29.62;20.16;;;;;;;9.14;63.35;98851.74;359323;110;1962949;-75
2021/04/15 02:31:47;;;;;;;29.85;19.98;;;;;;;9.13;63.46;98846.56;359443;110;1962003;-74
2021/04/15 02:33:03;;;;;;;29.11;19.75;;;;;;;9.11;63.47;98849.48;318933;110;2725978;-74
2021/04/15 02:34:14;;;;;;;29.90;19.18;;;;;;;9.10;63.49;98847.81;309777;111;2136674;-75
2021/04/15 02:35:51;;;;;;;29.33;20.02;;;;;;;9.10;63.59;98849.69;360404;111;1961893;-74
2021/04/15 02:37:12;;;;;;;26.35;18.81;;;;;;;9.08;63.58;98852.63;361713;111;1962046;-75
2021/04/15 02:38:24;;;;;;;25.39;17.93;;;;;;;9.08;63.52;98852.63;338422;110;2361002;-74
2021/04/15 02:39:33;;;;;;;28.92;20.32;;;;;;;9.07;63.62;98847.44;360710;110;1961941;-74
2021/04/15 02:40:44;;;;;;;28.97;19.13;;;;;;;9.06;63.70;98853.88;358261;110;1961965;-74
2021/04/15 02:41:52;;;;;;;27.84;19.34;;;;;;;9.04;63.69;98854.08;359257;110;1961957;-74
2021/04/15 02:43:07;;;;;;;28.96;20.07;;;;;;;9.05;63.76;98846.81;358264;111;1964057;-74
2021/04/15 02:44:19;;;;;;;26.29;19.28;;;;;;;9.02;63.89;98846.23;335510;110;1961934;-74
2021/04/15 02:45:35;;;;;;;27.89;19.26;;;;;;;9.05;63.78;98846.81;356238;110;1961931;-74
2021/04/15 02:46:45;;;;;;;29.57;19.17;;;;;;;9.05;63.72;98853.06;316577;112;2711960;-74
2021/04/15 02:47:57;;;;;;;25.58;19.14;;;;;;;9.06;63.90;98853.88;310848;110;2110651;-73
2021/04/15 02:49:06;;;;;;;31.87;21.41;;;;;;;9.06;63.93;98851.19;360932;111;1962068;-73
2021/04/15 02:50:16;;;;;;;25.81;19.73;;;;;;;9.07;63.91;98852.83;360562;110;1961925;-73
2021/04/15 02:51:28;;;;;;;28.67;19.75;;;;;;;9.07;63.97;98853.64;360472;111;1962882;-74
2021/04/15 02:52:37;;;;;;;27.18;19.18;;;;;;;9.09;63.91;98848.88;361195;112;1960956;-72
2021/04/15 02:53:47;;;;;;;28.11;20.35;;;;;;;9.10;63.95;98857.77;360920;110;1961941;-74
2021/04/15 02:54:57;;;;;;;28.51;18.58;;;;;;;9.12;63.86;98853.00;360899;112;1961930;-74
2021/04/15 02:56:09;;;;;;;31.76;20.81;;;;;;;9.15;63.91;98844.48;353874;114;1962040;-74
2021/04/15 02:57:21;;;;;;;27.41;19.42;;;;;;;9.17;63.87;98848.61;345729;110;1962001;-74
2021/04/15 02:58:31;;;;;;;28.58;20.66;;;;;;;9.18;63.79;98849.44;360198;110;1962057;-75
2021/04/15 02:59:48;;;;;;;29.09;20.44;;;;;;;9.20;63.83;98848.17;359425;110;1961863;-74
2021/04/15 03:00:55;;;;;;;30.45;21.41;;;;;;;9.19;63.85;98843.84;341658;110;1961979;-74
2021/04/15 03:02:07;;;;;;;35.09;24.29;;;;;;;9.20;63.79;98845.48;358943;111;1964195;-74
2021/04/15 03:03:18;;;;;;;36.57;24.15;;;;;;;9.20;63.87;98850.05;361915;111;1961978;-73
2021/04/15 03:04:24;;;;;;;35.15;25.14;;;;;;;9.19;63.87;98846.53;352782;111;1961900;-74
2021/04/15 03:05:36;;;;;;;35.18;24.41;;;;;;;9.20;63.78;98847.35;360729;111;1968920;-74
2021/04/15 03:06:45;;;;;;;31.44;21.98;;;;;;;9.20;63.81;98844.66;344843;111;2223976;-74
2021/04/15 03:07:55;;;;;;;30.99;21.80;;;;;;;9.19;63.86;98849.23;358818;111;1961928;-74
2021/04/15 03:09:05;;;;;;;30.74;21.86;;;;;;;9.19;63.86;98849.23;360639;111;1961952;-74
2021/04/15 03:10:14;;;;;;;29.34;20.04;;;;;;;9.19;63.92;98849.23;361874;110;1961959;-74
2021/04/15 03:11:23;;;;;;;31.58;21.69;;;;;;;9.20;63.97;98850.05;359990;110;1961884;-74
2021/04/15 03:12:38;;;;;;;31.13;22.47;;;;;;;9.18;64.02;98850.28;359420;111;1962008;-75
2021/04/15 03:13:47;;;;;;;32.38;20.04;;;;;;;9.19;64.02;98848.41;359246;110;1962023;-75
2021/04/15 03:15:15;;;;;;;32.33;20.67;;;;;;;9.19;64.05;98845.72;358135;112;1961958;-75
2021/04/15 03:16:27;;;;;;;28.33;19.83;;;;;;;9.20;64.04;98850.05;310085;110;2240883;-75
2021/04/15 03:17:36;;;;;;;30.51;20.72;;;;;;;9.20;64.05;98850.05;361477;111;1963081;-74
2021/04/15 03:18:48;;;;;;;29.29;19.80;;;;;;;9.20;64.05;98850.87;360296;111;1961953;-75
2021/04/15 03:19:58;;;;;;;;;;;;;;;9.21;64.03;98855.23;365093;112;1960869;-74
2021/04/15 03:21:09;;;;;;;32.27;20.67;;;;;;;9.20;64.19;98848.17;320550;110;2708943;-73
2021/04/15 03:22:24;;;;;;;28.80;21.64;;;;;;;9.21;64.08;98849.03;312221;114;2773035;-74
2021/04/15 03:23:42;;;;;;;46.57;35.09;;;;;;;9.21;64.08;98852.54;328844;113;1962947;-74
2021/04/15 03:24:52;;;;;;;40.39;31.77;;;;;;;9.21;64.09;98852.54;355851;111;1961971;-74
2021/04/15 03:26:02;;;;;;;44.63;33.31;;;;;;;9.22;64.10;98853.36;359371;111;1961931;-74
2021/04/15 03:27:14;;;;;;;35.64;26.39;;;;;;;9.22;64.13;98850.66;360647;110;1962013;-74
2021/04/15 03:28:29;;;;;;;32.13;21.26;;;;;;;9.24;64.14;98859.36;346608;110;1961946;-74
2021/04/15 03:29:53;;;;;;;31.24;21.44;;;;;;;9.23;64.15;98853.16;360451;111;1963995;-74
2021/04/15 03:31:09;;;;;;;32.24;21.57;;;;;;;9.26;64.10;98854.56;334016;111;1961983;-74
2021/04/15 03:32:37;;;;;;;29.72;20.26;;;;;;;9.28;64.03;98857.05;359548;110;1961928;-74
2021/04/15 03:33:49;;;;;;;32.96;20.83;;;;;;;9.31;63.98;98854.73;308179;110;2166866;-75
2021/04/15 03:34:59;;;;;;;;;;;;;;;9.34;63.86;98858.87;365295;110;1961006;-76
2021/04/15 03:36:28;;;;;;;29.53;20.27;;;;;;;9.37;63.82;98858.45;352906;114;1961032;-74
2021/04/15 03:38:00;;;;;;;33.00;22.26;;;;;;;9.38;63.76;98852.83;339496;118;1961955;-74
2021/04/15 03:39:13;;;;;;;31.31;21.49;;;;;;;9.41;63.62;98852.39;356359;110;1961897;-74
2021/04/15 03:40:23;;;;;;;32.27;22.32;;;;;;;9.40;63.62;98853.45;360496;110;1961972;-74
2021/04/15 03:41:44;;;;;;;32.86;22.87;;;;;;;9.41;63.61;98851.57;357677;110;1962059;-75
2021/04/15 03:42:57;;;;;;;29.41;21.16;;;;;;;9.42;63.57;98854.06;358924;110;1960900;-74
2021/04/15 03:44:16;;;;;;;36.50;23.48;;;;;;;9.45;63.54;98863.58;359870;110;1962042;-74
2021/04/15 03:45:33;;;;;;;29.54;21.74;;;;;;;9.44;63.59;98854.64;366219;110;1961995;-74
2021/04/15 03:46:43;;;;;;;32.18;21.69;;;;;;;9.44;63.61;98856.52;364964;109;1961891;-75
2021/04/15 03:47:53;;;;;;;30.00;20.66;;;;;;;9.45;63.61;98858.19;362823;107;1960967;-74
2021/04/15 03:49:12;;;;;;;29.64;21.39;;;;;;;9.48;63.53;98859.63;361652;109;1962083;-74
2021/04/15 03:50:22;;;;;;;29.04;20.91;;;;;;;9.48;63.57;98856.92;361861;109;1962049;-74
2021/04/15 03:51:50;;;;;;;28.99;20.14;;;;;;;9.49;63.60;98861.27;358321;111;1962306;-73
2021/04/15 03:53:08;;;;;;;29.97;20.08;;;;;;;9.51;63.53;98862.70;363401;109;1961923;-74
2021/04/15 03:54:19;;;;;;;32.89;20.51;;;;;;;9.53;63.45;98863.31;363694;109;1963937;-74
2021/04/15 03:55:38;;;;;;;27.65;19.46;;;;;;;9.55;63.37;98863.92;353425;109;1962019;-74
2021/04/15 03:56:57;;;;;;;33.40;21.86;;;;;;;9.57;63.35;98864.51;343560;109;2350906;-74
2021/04/15 03:58:09;;;;;;;29.69;19.78;;;;;;;9.57;63.38;98863.69;342414;117;1961927;-74
2021/04/15 03:59:24;;;;;;;29.65;21.04;;;;;;;9.60;63.48;98860.55;340305;118;1961958;-74
2021/04/15 04:00:34;;;;;;;31.00;20.08;;;;;;;9.60;63.22;98863.25;340948;118;1962018;-75
2021/04/15 04:01:46;;;;;;;42.88;20.51;;;;;;;9.60;63.35;98864.06;342317;117;1963985;-74
2021/04/15 04:02:58;;;;;;;30.74;20.20;;;;;;;9.55;63.49;98846.90;339733;117;1961988;-76
2021/04/15 04:04:20;;;;;;;27.96;19.62;;;;;;;9.62;63.27;98863.86;336389;119;1964035;-74
2021/04/15 04:05:29;;;;;;;30.49;20.24;;;;;;;9.59;63.62;98862.42;339798;117;1961951;-73
2021/04/15 04:06:42;;;;;;;27.68;19.29;;;;;;;9.57;63.49;98866.38;339099;117;1961966;-72
2021/04/15 04:07:52;;;;;;;32.38;19.44;;;;;;;9.54;63.59;98856.86;309850;119;2548971;-74
2021/04/15 04:09:01;;;;;;;28.27;17.99;;;;;;;9.53;63.53;98862.49;338505;117;1961996;-73
2021/04/15 04:10:11;;;;;;;28.41;17.57;;;;;;;9.52;63.59;98864.34;315535;113;1962148;-73
2021/04/15 04:11:20;;;;;;;27.60;17.19;;;;;;;9.51;63.71;98868.09;319691;114;2449974;-74
2021/04/15 04:12:44;;;;;;;24.14;15.69;;;;;;;9.48;64.12;98870.41;355084;113;1961942;-74
2021/04/15 04:13:57;;;;;;;28.00;16.97;;;;;;;9.47;64.11;98874.95;349905;114;1961967;-73
2021/04/15 04:15:15;;;;;;;25.82;17.32;;;;;;;9.43;63.92;98871.05;346662;116;1960884;-72
2021/04/15 04:16:24;;;;;;;27.77;17.33;;;;;;;9.42;64.01;98877.47;291079;118;2172022;-73
2021/04/15 04:17:43;;;;;;;28.27;17.72;;;;;;;9.40;64.25;98871.49;297864;117;2825972;-72
2021/04/15 04:19:05;;;;;;;26.04;17.68;;;;;;;9.40;64.32;98874.19;336070;118;1961930;-73
2021/04/15 04:20:13;;;;;;;25.09;18.12;;;;;;;9.38;64.26;98874.39;345644;115;1961959;-72
2021/04/15 04:21:28;;;;;;;31.04;18.54;;;;;;;9.37;64.31;98872.75;346343;116;1960800;-73
2021/04/15 04:22:52;;;;;;;24.17;18.42;;;;;;;9.36;64.38;98878.34;340254;117;1964097;-73
2021/04/15 04:24:08;;;;;;;25.29;17.52;;;;;;;9.35;64.57;98874.83;345652;115;1964984;-72
2021/04/15 04:25:17;;;;;;;25.19;18.32;;;;;;;9.33;64.68;98874.22;346129;117;1960763;-72
2021/04/15 04:26:37;;;;;;;26.07;18.38;;;;;;;9.33;64.77;98874.22;318501;117;1962894;-73
2021/04/15 04:27:55;;;;;;;29.89;19.34;;;;;;;9.31;64.64;98868.21;345369;115;1970026;-72
2021/04/15 04:29:16;;;;;;;28.73;19.68;;;;;;;9.29;64.82;98870.32;336317;118;1963948;-72
2021/04/15 04:30:30;;;;;;;24.84;18.54;;;;;;;9.29;64.67;98870.32;336202;118;1963984;-73
2021/04/15 04:31:39;;;;;;;27.97;19.71;;;;;;;9.29;64.88;98872.16;339912;110;1963088;-70
2021/04/15 04:32:46;;;;;;;27.52;18.71;;;;;;;9.27;65.01;98868.89;357900;111;1964012;-73
2021/04/15 04:33:56;;;;;;;28.51;18.46;;;;;;;9.24;65.07;98870.96;371467;108;1961964;-74
2021/04/15 04:35:14;;;;;;;29.54;19.70;;;;;;;9.23;65.15;98871.17;372111;108;1961982;-73
2021/04/15 04:36:24;;;;;;;26.85;19.63;;;;;;;9.23;65.26;98869.33;358387;111;1962009;-73
2021/04/15 04:37:39;;;;;;;28.17;19.94;;;;;;;9.24;65.19;98868.27;359427;111;1965015;-73
2021/04/15 04:38:45;;;;;;;30.10;19.79;;;;;;;9.23;65.31;98872.02;354203;113;1965174;-72
2021/04/15 04:39:51;;;;;;;28.16;19.46;;;;;;;9.24;65.37;98872.84;353563;113;1961983;-73
2021/04/15 04:41:19;;;;;;;30.17;20.07;;;;;;;9.23;65.20;98877.41;309184;113;2061593;-72
2021/04/15 04:42:34;;;;;;;30.53;18.22;;;;;;;9.23;65.33;98880.10;354665;112;1964064;-73
2021/04/15 04:43:46;;;;;;;31.85;21.19;;;;;;;9.23;65.35;98880.10;361726;109;1961973;-73
2021/04/15 04:44:58;;;;;;;33.23;22.33;;;;;;;9.23;65.39;98866.63;358837;111;1964069;-73
2021/04/15 04:46:13;;;;;;;28.86;22.34;;;;;;;9.24;65.42;98872.84;357411;111;1960921;-74
2021/04/15 04:47:34;;;;;;;27.51;20.00;;;;;;;9.23;65.41;98869.33;355925;111;1968887;-73
2021/04/15 04:48:43;;;;;;;32.48;21.33;;;;;;;9.22;65.43;98883.00;357756;111;1960892;-73
2021/04/15 04:49:55;;;;;;;30.27;21.15;;;;;;;9.22;65.46;98872.22;358110;111;1964052;-73
2021/04/15 04:51:05;;;;;;;32.18;22.03;;;;;;;9.22;65.44;98872.22;359357;111;1963001;-73
2021/04/15 04:52:17;;;;;;;30.15;21.11;;;;;;;9.23;65.41;98873.86;359305;111;1961901;-73
2021/04/15 04:53:28;;;;;;;30.65;21.84;;;;;;;9.24;65.50;98870.14;329443;111;2485976;-73
2021/04/15 04:54:40;;;;;;;34.77;22.57;;;;;;;9.24;65.54;98870.96;313827;109;2134963;-74
2021/04/15 04:56:08;;;;;;;38.72;23.35;;;;;;;9.25;65.53;98872.60;368600;108;1964117;-73
2021/04/15 04:57:26;;;;;;;30.13;20.04;;;;;;;9.29;65.54;98874.86;331396;108;2620946;-73
2021/04/15 04:58:32;;;;;;;28.92;20.30;;;;;;;9.34;65.41;98875.89;369797;108;1962014;-74
2021/04/15 04:59:42;;;;;;;30.72;21.80;;;;;;;9.39;65.30;98876.06;320311;107;2843934;-74
2021/04/15 05:00:54;;;;;;;32.31;22.84;;;;;;;9.43;65.34;98874.56;370843;109;1962004;-74
2021/04/15 05:01:59;;;;;;;32.53;20.51;;;;;;;9.50;65.22;98873.69;372606;107;1960995;-73
2021/04/15 05:03:05;;;;;;;32.18;21.79;;;;;;;9.56;65.10;98886.31;370719;107;1961950;-73
2021/04/15 05:04:12;;;;;;;33.31;22.40;;;;;;;9.62;64.99;98878.16;373429;107;1960714;-73
2021/04/15 05:05:32;;;;;;;33.57;21.66;;;;;;;9.69;64.77;98878.95;311486;107;2187726;-73
2021/04/15 05:06:42;;;;;;;32.29;22.78;;;;;;;9.77;64.62;98871.64;347138;109;1960954;-73
2021/04/15 05:07:50;;;;;;;35.73;22.24;;;;;;;9.84;64.44;98875.94;361516;109;1960821;-72
2021/04/15 05:09:24;;;;;;;32.46;24.41;;;;;;;9.91;64.31;98879.38;373690;108;1960748;-73
2021/04/15 05:10:32;;;;;;;30.11;21.38;;;;;;;9.96;64.23;98881.42;372902;107;1961796;-72
2021/04/15 05:11:41;;;;;;;37.13;28.23;;;;;;;10.02;64.05;98879.70;373062;107;1960963;-73
2021/04/15 05:12:50;;;;;;;34.22;24.23;;;;;;;10.04;63.97;98877.62;355670;107;1961967;-73
2021/04/15 05:13:56;;;;;;;33.32;23.08;;;;;;;10.07;63.91;98879.87;370556;107;1960844;-74
2021/04/15 05:15:04;;;;;;;30.80;21.04;;;;;;;10.06;63.84;98881.75;332807;110;1962016;-73
2021/04/15 05:16:10;;;;;;;30.04;22.61;;;;;;;10.08;63.73;98882.36;365569;110;1961878;-73
2021/04/15 05:17:19;;;;;;;33.32;22.82;;;;;;;10.09;63.69;98880.48;305942;111;2232962;-73
2021/04/15 05:18:26;;;;;;;35.72;22.05;;;;;;;10.07;63.66;98875.29;349809;110;1963073;-73
2021/04/15 05:19:35;;;;;;;36.17;22.19;;;;;;;10.08;63.69;98879.66;370257;107;1962010;-73
2021/04/15 05:20:44;;;;;;;35.30;22.71;;;;;;;10.09;63.65;98875.08;370820;107;1961939;-73
2021/04/15 05:21:51;;;;;;;36.89;24.84;;;;;;;10.10;63.60;98877.54;369145;107;1962079;-73
2021/04/15 05:23:03;;;;;;;35.00;23.32;;;;;;;10.13;63.54;98878.97;357779;111;1961915;-74
2021/04/15 05:24:21;;;;;;;33.71;24.12;;;;;;;10.14;63.49;98875.24;361619;110;1962044;-72
2021/04/15 05:25:41;;;;;;;43.01;25.97;;;;;;;10.17;63.44;98871.27;367452;110;1961974;-73
2021/04/15 05:26:48;;;;;;;39.02;24.96;;;;;;;10.20;63.36;98865.42;364210;110;1962009;-73
2021/04/15 05:27:55;;;;;;;37.96;24.23;;;;;;;10.25;63.22;98879.08;318319;110;2226990;-73
2021/04/15 05:29:18;;;;;;;37.34;25.01;;;;;;;10.28;63.14;98873.26;364191;110;1961996;-73
2021/04/15 05:30:32;;;;;;;38.73;24.27;;;;;;;10.34;62.98;98872.36;373242;108;1961964;-74